Time;durP1;ratioP1;P1;durP2;ratioP2;P2;SDS_P1;SDS_P2;PMS_P1;PMS_P2;Temp;Humidity;BMP_temperature;BMP_pressure;BME280_temperature;BME280_humidity;BME280_pressure;Samples;Min_cycle;Max_cycle;Signal;HPM_P1;HPM_P2
2021/07/26 00:02:00;;;;;;;5.38;3.25;;;;;;;18.46;73.87;100635.22;5011058;28;20380;-68
2021/07/26 00:04:26;;;;;;;5.95;2.90;;;;;;;18.41;74.17;100648.97;5010629;28;20398;-68
2021/07/26 00:06:51;;;;;;;4.03;2.53;;;;;;;18.33;74.23;100646.59;5026811;28;20060;-68
2021/07/26 00:09:17;;;;;;;4.55;2.65;;;;;;;18.26;74.56;100645.81;5026826;28;20029;-68
2021/07/26 00:11:42;;;;;;;6.07;3.42;;;;;;;18.18;74.73;100635.59;5029987;28;20037;-68
2021/07/26 00:14:08;;;;;;;7.57;2.92;;;;;;;18.16;75.08;100632.34;5033705;28;20037;-68
2021/07/26 00:16:33;;;;;;;6.97;3.25;;;;;;;18.06;75.50;100627.53;5030199;28;20116;-68
2021/07/26 00:18:59;;;;;;;4.18;2.60;;;;;;;18.03;75.76;100628.78;5033088;28;20029;-67
2021/07/26 00:21:24;;;;;;;6.70;2.90;;;;;;;18.00;75.99;100625.75;5031849;28;20395;-67
2021/07/26 00:23:50;;;;;;;7.13;2.88;;;;;;;17.99;76.10;100627.59;5029091;28;20061;-68
2021/07/26 00:26:16;;;;;;;5.40;2.65;;;;;;;17.97;76.19;100623.56;5032349;28;20092;-68
2021/07/26 00:28:42;;;;;;;6.50;3.45;;;;;;;17.99;76.16;100626.75;5011387;28;20233;-68
2021/07/26 00:31:08;;;;;;;4.32;2.70;;;;;;;17.97;76.03;100624.38;5028061;28;20033;-68
2021/07/26 00:34:11;;;;;;;6.82;3.00;;;;;;;17.99;76.25;100642.50;5009452;28;20071;-68
2021/07/26 00:36:38;;;;;;;;;;;;;;;17.94;76.40;100642.34;5026417;28;20028;-67
2021/07/26 00:39:05;;;;;;;7.15;2.90;;;;;;;17.94;76.20;100632.66;5031826;28;19914;-67
2021/07/26 00:41:32;;;;;;;3.78;2.72;;;;;;;17.97;76.20;100640.13;5011059;28;20032;-68
2021/07/26 00:43:57;;;;;;;5.95;2.58;;;;;;;17.96;76.43;100635.88;5011370;28;20513;-68
2021/07/26 00:46:23;;;;;;;7.10;2.88;;;;;;;17.93;76.40;100632.84;5031050;28;20033;-68
2021/07/26 00:48:48;;;;;;;5.32;3.30;;;;;;;17.89;76.43;100625.44;5026911;28;20300;-67
2021/07/26 00:51:14;;;;;;;9.75;3.30;;;;;;;17.90;76.41;100627.00;5021479;28;20036;-68
2021/07/26 00:53:40;;;;;;;5.32;2.88;;;;;;;17.89;76.47;100621.97;5036586;28;20078;-68
2021/07/26 00:56:06;;;;;;;4.13;2.15;;;;;;;17.90;76.37;100620.97;5028029;28;20037;-68
2021/07/26 00:58:32;;;;;;;5.88;3.10;;;;;;;17.89;76.48;100622.81;5029073;28;20371;-67
2021/07/26 01:00:58;;;;;;;6.18;2.88;;;;;;;17.87;76.49;100622.19;5028565;28;20479;-68
2021/07/26 01:03:24;;;;;;;6.75;2.75;;;;;;;17.88;76.43;100617.75;5037842;28;20036;-68
2021/07/26 01:05:49;;;;;;;3.97;2.58;;;;;;;17.84;76.53;100620.00;5033826;28;20033;-68
2021/07/26 01:08:15;;;;;;;3.97;2.75;;;;;;;17.78;76.76;100619.97;5029435;28;20033;-67
2021/07/26 01:10:41;;;;;;;9.75;2.95;;;;;;;17.75;76.69;100612.53;5027801;28;20041;-68
2021/07/26 01:13:06;;;;;;;6.72;3.00;;;;;;;17.67;76.81;100622.25;5029647;28;20021;-68
2021/07/26 01:15:31;;;;;;;4.55;2.80;;;;;;;17.70;77.04;100619.19;5028180;28;20380;-68
2021/07/26 01:18:32;;;;;;;4.15;3.00;;;;;;;17.66;77.21;100614.56;5027966;28;20033;-68
2021/07/26 01:21:02;;;;;;;5.47;2.92;;;;;;;17.63;77.35;100614.97;5042348;28;20492;-68
2021/07/26 01:23:30;;;;;;;4.97;2.78;;;;;;;17.60;77.54;100610.97;5026094;28;20037;-68
2021/07/26 01:25:56;;;;;;;11.50;4.47;;;;;;;17.56;77.79;100616.84;5014985;28;20400;-68
2021/07/26 01:28:26;;;;;;;7.03;3.08;;;;;;;17.57;77.71;100619.22;5035862;28;20061;-67
2021/07/26 01:30:51;;;;;;;6.05;3.47;;;;;;;17.53;77.93;100628.53;5029747;28;20037;-68
2021/07/26 01:33:18;;;;;;;5.30;2.95;;;;;;;17.38;78.33;100627.97;5038841;28;20056;-68
2021/07/26 01:35:44;;;;;;;4.97;3.28;;;;;;;17.38;78.59;100620.09;5034324;28;20021;-68
2021/07/26 01:38:10;;;;;;;9.20;3.67;;;;;;;17.35;78.63;100618.69;5033321;28;20151;-68
2021/07/26 01:40:39;;;;;;;4.47;3.10;;;;;;;17.36;78.51;100619.50;5026357;28;20097;-68
2021/07/26 01:43:09;;;;;;;7.25;3.08;;;;;;;17.36;78.55;100625.53;5029209;28;20403;-68
2021/07/26 01:45:39;;;;;;;8.18;2.72;;;;;;;17.38;78.30;100622.72;5016620;28;20083;-68
2021/07/26 01:48:14;;;;;;;4.50;2.55;;;;;;;17.38;78.18;100625.34;5031387;28;20143;-68
2021/07/26 01:51:02;;;;;;;3.75;2.80;;;;;;;17.41;77.85;100628.34;5033674;28;20548;-68
2021/07/26 01:53:29;;;;;;;5.68;3.47;;;;;;;17.38;77.73;100628.75;5025004;28;20033;-68
2021/07/26 01:55:55;;;;;;;6.32;2.95;;;;;;;17.31;78.08;100628.78;5023544;28;20518;-68
2021/07/26 01:58:21;;;;;;;8.65;3.13;;;;;;;17.28;78.22;100628.38;5023520;28;20156;-67
2021/07/26 02:00:46;;;;;;;5.32;3.30;;;;;;;17.28;78.26;100633.63;5035980;28;20148;-68
2021/07/26 02:03:12;;;;;;;5.93;2.60;;;;;;;17.28;78.11;100634.41;5007485;28;20034;-68
2021/07/26 02:05:37;;;;;;;7.22;2.90;;;;;;;17.26;77.96;100628.59;5028430;28;20423;-67
2021/07/26 02:08:03;;;;;;;11.35;3.60;;;;;;;17.21;77.97;100633.63;5029817;28;20021;-67
2021/07/26 02:10:29;;;;;;;4.47;2.58;;;;;;;17.16;78.04;100633.44;5027644;28;20471;-68
2021/07/26 02:12:57;;;;;;;5.43;2.40;;;;;;;17.13;77.69;100633.84;5026252;28;20037;-68
2021/07/26 02:15:23;;;;;;;5.13;2.80;;;;;;;17.10;77.50;100632.44;5029538;28;20029;-68
2021/07/26 02:17:48;;;;;;;4.93;2.67;;;;;;;17.08;77.11;100633.63;5028207;28;20349;-68
2021/07/26 02:20:16;;;;;;;7.78;3.38;;;;;;;17.02;77.57;100640.50;5029488;28;20518;-68
2021/07/26 02:22:42;;;;;;;4.60;2.40;;;;;;;16.95;77.66;100639.69;5028326;28;20029;-68
2021/07/26 02:25:08;;;;;;;4.82;2.97;;;;;;;16.96;78.14;100641.31;5026793;28;20029;-67
2021/07/26 02:27:34;;;;;;;6.57;2.92;;;;;;;16.99;77.99;100640.09;5027725;28;20521;-68
2021/07/26 02:29:59;;;;;;;5.60;2.88;;;;;;;16.97;77.97;100640.31;5029340;28;20037;-68
2021/07/26 02:32:25;;;;;;;4.38;2.05;;;;;;;16.91;78.12;100648.94;5011048;28;20036;-67
2021/07/26 02:34:50;;;;;;;3.78;2.47;;;;;;;16.87;78.14;100647.75;5024476;28;20040;-68
2021/07/26 02:37:16;;;;;;;4.63;2.83;;;;;;;16.83;78.31;100647.34;5021246;28;20030;-68
2021/07/26 02:39:41;;;;;;;5.63;2.55;;;;;;;16.80;78.28;100642.50;5029387;28;20033;-68
2021/07/26 02:42:07;;;;;;;4.35;2.40;;;;;;;16.76;78.45;100643.88;5028698;28;20247;-68
2021/07/26 02:44:33;;;;;;;5.13;3.13;;;;;;;16.77;78.28;100655.97;5026643;28;20423;-68
2021/07/26 02:46:59;;;;;;;12.43;3.35;;;;;;;16.80;78.48;100646.91;5028435;28;20067;-68
2021/07/26 02:49:24;;;;;;;5.00;3.03;;;;;;;16.71;78.81;100665.44;5027126;28;20439;-68
2021/07/26 02:51:50;;;;;;;10.63;3.00;;;;;;;16.74;79.16;100661.59;5027726;28;20029;-68
2021/07/26 02:54:15;;;;;;;6.00;3.17;;;;;;;16.70;79.19;100673.47;5027451;28;20034;-68
2021/07/26 02:56:43;;;;;;;8.63;3.22;;;;;;;16.63;79.37;100673.50;5026680;28;20059;-68
2021/07/26 02:59:08;;;;;;;6.65;3.05;;;;;;;16.69;79.24;100672.69;5030501;28;20513;-68
2021/07/26 03:01:34;;;;;;;4.00;2.65;;;;;;;16.69;79.35;100677.91;5026842;28;20026;-68
2021/07/26 03:04:01;;;;;;;8.23;2.80;;;;;;;16.64;79.63;100669.06;5028686;28;20033;-68
2021/07/26 03:06:26;;;;;;;8.60;3.15;;;;;;;16.61;79.60;100675.47;5028511;28;20021;-68
2021/07/26 03:08:52;;;;;;;3.78;2.65;;;;;;;16.62;79.76;100677.09;5027860;28;20361;-68
2021/07/26 03:11:17;;;;;;;8.65;2.42;;;;;;;16.64;79.54;100675.09;5028800;28;20098;-68
2021/07/26 03:13:44;;;;;;;3.78;2.25;;;;;;;16.64;79.62;100680.31;5026898;28;20029;-68
2021/07/26 03:16:11;;;;;;;5.03;2.88;;;;;;;16.66;79.32;100682.75;5026591;28;20033;-68
2021/07/26 03:18:37;;;;;;;7.55;3.22;;;;;;;16.64;78.92;100682.13;5026650;28;20032;-68
2021/07/26 03:21:04;;;;;;;6.45;2.38;;;;;;;16.63;79.12;100680.50;5028854;28;20346;-68
2021/07/26 03:23:30;;;;;;;5.60;2.58;;;;;;;16.59;78.91;100680.09;5025917;28;20028;-68
2021/07/26 03:25:56;;;;;;;8.38;3.15;;;;;;;16.62;78.81;100684.94;5028053;28;20033;-68
2021/07/26 03:28:21;;;;;;;7.03;3.38;;;;;;;16.53;79.24;100684.31;5026851;28;20531;-68
2021/07/26 03:30:47;;;;;;;5.43;2.50;;;;;;;16.51;79.68;100685.53;5026967;28;20216;-68
2021/07/26 03:33:12;;;;;;;5.25;2.80;;;;;;;16.42;79.92;100689.31;5026764;28;20113;-68
2021/07/26 03:35:38;;;;;;;5.22;3.15;;;;;;;16.37;80.05;100689.94;5010207;28;20095;-68
2021/07/26 03:38:05;;;;;;;6.32;2.88;;;;;;;16.37;80.10;100686.47;5026220;28;20058;-68
2021/07/26 03:40:31;;;;;;;6.10;2.83;;;;;;;16.38;80.04;100685.50;5026058;28;20051;-68
2021/07/26 03:42:57;;;;;;;7.22;2.63;;;;;;;16.36;80.24;100688.31;5028545;28;20563;-68
2021/07/26 03:45:22;;;;;;;4.72;2.25;;;;;;;16.37;80.32;100686.47;5026016;28;20025;-68
2021/07/26 03:47:48;;;;;;;5.47;2.53;;;;;;;16.42;80.13;100697.19;5026183;28;20033;-68
2021/07/26 03:50:15;;;;;;;6.30;2.80;;;;;;;16.44;79.89;100698.59;5027773;28;20032;-68
2021/07/26 03:52:55;;;;;;;6.90;3.00;;;;;;;16.47;79.71;100700.00;5026633;28;20033;-67
2021/07/26 03:55:33;;;;;;;3.97;2.55;;;;;;;16.43;79.79;100699.59;5024278;28;20032;-68
2021/07/26 03:57:59;;;;;;;8.75;3.00;;;;;;;16.45;79.87;100699.41;5032471;28;20047;-68
2021/07/26 04:00:29;;;;;;;6.13;3.17;;;;;;;16.47;80.14;100695.59;5026518;28;20419;-67
2021/07/26 04:03:23;;;;;;;6.65;2.40;;;;;;;16.50;80.11;100697.00;5009980;28;20044;-67
2021/07/26 04:08:22;;;;;;;8.68;2.83;;;;;;;16.53;80.33;100710.47;5026994;28;20048;-67
2021/07/26 04:10:51;;;;;;;3.55;2.55;;;;;;;16.55;80.34;100705.84;5039764;23;20045;-68
2021/07/26 04:13:17;;;;;;;5.40;2.70;;;;;;;16.59;80.19;100706.28;5004761;28;20091;-68
2021/07/26 04:15:46;;;;;;;7.35;2.65;;;;;;;16.65;79.98;100710.75;5007884;28;20029;-69
2021/07/26 04:18:12;;;;;;;6.38;2.72;;;;;;;16.70;79.85;100704.91;5026593;28;20348;-68
2021/07/26 04:20:39;;;;;;;4.25;2.88;;;;;;;16.78;79.50;100711.75;5026945;28;20032;-67
2021/07/26 04:23:06;;;;;;;5.95;2.85;;;;;;;16.79;79.71;100708.16;5008258;28;20084;-68
2021/07/26 04:25:31;;;;;;;4.80;3.00;;;;;;;16.83;79.51;100704.94;4997776;28;20065;-68
2021/07/26 04:27:57;;;;;;;3.25;2.30;;;;;;;16.78;79.69;100701.28;5026261;28;20122;-68
2021/07/26 04:30:22;;;;;;;6.82;2.22;;;;;;;16.80;79.68;100701.88;5015141;28;20033;-68
2021/07/26 04:32:48;;;;;;;2.97;2.33;;;;;;;16.84;79.32;100706.56;5022857;28;20400;-68
2021/07/26 04:35:15;;;;;;;4.85;2.47;;;;;;;16.89;79.41;100705.97;5026833;28;20079;-68
2021/07/26 04:37:41;;;;;;;8.13;3.25;;;;;;;16.92;79.47;100724.69;5008679;28;20036;-68
2021/07/26 04:40:10;;;;;;;6.65;2.38;;;;;;;16.96;79.52;100714.63;5025350;28;20029;-68
2021/07/26 04:42:37;;;;;;;5.63;2.63;;;;;;;16.95;79.63;100715.63;5008812;28;20438;-67
2021/07/26 04:45:04;;;;;;;3.97;2.47;;;;;;;17.06;79.20;100709.00;5012390;28;20411;-68
2021/07/26 04:47:29;;;;;;;6.55;2.80;;;;;;;17.11;78.61;100722.31;5026751;28;20057;-68
2021/07/26 04:49:55;;;;;;;6.38;2.75;;;;;;;17.08;78.88;100720.09;5026583;28;20048;-67
2021/07/26 04:52:20;;;;;;;6.00;2.78;;;;;;;17.15;78.90;100714.84;5014867;28;20025;-68
2021/07/26 04:54:46;;;;;;;7.00;3.22;;;;;;;17.23;78.27;100725.91;5008639;28;20498;-67
2021/07/26 04:57:11;;;;;;;6.55;2.63;;;;;;;17.19;78.25;100723.91;5016349;28;20044;-67
2021/07/26 04:59:37;;;;;;;5.55;3.03;;;;;;;17.19;78.50;100732.56;5014472;28;20255;-66
2021/07/26 05:02:02;;;;;;;8.20;2.85;;;;;;;17.27;78.34;100727.16;5026123;28;20091;-67
2021/07/26 05:04:28;;;;;;;7.13;2.65;;;;;;;17.28;78.26;100733.19;5010156;28;20029;-67
2021/07/26 05:07:03;;;;;;;5.03;2.90;;;;;;;17.21;78.33;100735.81;5025782;28;20036;-68
2021/07/26 05:09:29;;;;;;;7.45;2.90;;;;;;;17.32;78.24;100735.19;4996021;28;20120;-67
2021/07/26 05:12:01;;;;;;;10.15;2.65;;;;;;;17.26;78.26;100732.59;5025396;28;20362;-67
2021/07/26 05:14:27;;;;;;;7.75;3.38;;;;;;;17.24;78.14;100730.16;5012505;28;20033;-67
2021/07/26 05:16:53;;;;;;;7.63;2.83;;;;;;;17.21;78.23;100735.81;5012825;28;20162;-67
2021/07/26 05:19:18;;;;;;;5.00;2.88;;;;;;;17.27;78.19;100732.41;5034574;28;20147;-67
2021/07/26 05:21:44;;;;;;;6.60;3.42;;;;;;;17.38;77.73;100738.03;5030113;28;20472;-68
2021/07/26 05:24:09;;;;;;;7.50;2.92;;;;;;;17.39;77.73;100731.78;5025727;28;20407;-68
2021/07/26 05:26:35;;;;;;;4.13;2.50;;;;;;;17.38;78.23;100730.97;5031663;28;20037;-68
2021/07/26 05:29:00;;;;;;;8.55;2.95;;;;;;;17.46;78.24;100740.44;5029596;28;20041;-67
2021/07/26 05:31:26;;;;;;;7.22;3.10;;;;;;;17.49;78.01;100730.34;5019182;28;20031;-68
2021/07/26 05:33:51;;;;;;;6.13;2.70;;;;;;;17.52;78.14;100734.41;5012904;28;20407;-68
2021/07/26 05:36:17;;;;;;;4.05;2.50;;;;;;;17.52;77.67;100737.81;5014524;28;20091;-68
2021/07/26 05:38:42;;;;;;;6.80;2.80;;;;;;;17.69;77.17;100742.66;5030730;28;20033;-68
2021/07/26 05:41:08;;;;;;;6.40;2.33;;;;;;;17.67;77.39;100748.09;5002153;28;20033;-67
2021/07/26 05:43:33;;;;;;;4.72;2.83;;;;;;;17.70;77.27;100742.41;5016414;28;20462;-68
2021/07/26 05:46:00;;;;;;;3.80;2.60;;;;;;;17.72;77.29;100742.22;5040419;28;20314;-67
2021/07/26 05:48:26;;;;;;;5.03;2.83;;;;;;;17.80;77.34;100746.44;5002405;28;20060;-68
2021/07/26 05:50:51;;;;;;;2.88;2.13;;;;;;;17.82;76.76;100740.00;5017966;28;20018;-68
2021/07/26 05:53:17;;;;;;;4.65;2.33;;;;;;;17.94;76.74;100749.88;5036565;28;20384;-68
2021/07/26 05:55:42;;;;;;;7.28;2.72;;;;;;;17.95;76.45;100741.81;5020647;28;20494;-68
2021/07/26 05:58:08;;;;;;;4.60;2.65;;;;;;;18.08;76.19;100746.19;5038160;28;20041;-68
2021/07/26 06:00:44;;;;;;;3.28;2.38;;;;;;;18.10;76.15;100738.94;5030198;28;20052;-68
2021/07/26 06:03:10;;;;;;;3.63;2.40;;;;;;;18.13;76.28;100741.16;5028107;28;20116;-68
2021/07/26 06:05:36;;;;;;;3.95;2.15;;;;;;;18.26;75.59;100742.91;5012065;28;20108;-68
2021/07/26 06:08:01;;;;;;;4.93;2.85;;;;;;;18.27;75.55;100744.50;5030435;28;20079;-68
2021/07/26 06:10:27;;;;;;;4.40;2.70;;;;;;;18.41;75.32;100730.34;5029329;28;20551;-67
2021/07/26 06:12:53;;;;;;;6.45;3.00;;;;;;;18.53;74.69;100730.47;5010949;28;20026;-68
2021/07/26 06:15:19;;;;;;;5.80;2.72;;;;;;;18.58;74.70;100733.28;5027512;28;20038;-68
2021/07/26 06:17:45;;;;;;;5.80;2.80;;;;;;;18.73;74.05;100733.00;4999582;28;20033;-67
2021/07/26 06:20:11;;;;;;;4.72;2.50;;;;;;;18.88;73.17;100732.72;4996998;28;20140;-67
2021/07/26 06:22:37;;;;;;;6.05;2.55;;;;;;;19.03;72.69;100741.09;5011406;28;20455;-68
2021/07/26 06:25:09;;;;;;;3.63;2.45;;;;;;;19.28;72.47;100727.16;5016550;28;20092;-69
2021/07/26 06:27:35;;;;;;;8.20;2.90;;;;;;;19.38;72.36;100737.19;5010400;28;20083;-68
2021/07/26 06:30:00;;;;;;;6.35;2.45;;;;;;;19.46;72.24;100731.69;5008872;28;20030;-68
2021/07/26 06:32:25;;;;;;;7.25;2.38;;;;;;;19.71;71.66;100738.72;5014206;28;20032;-68
2021/07/26 06:34:51;;;;;;;8.18;2.83;;;;;;;19.81;70.78;100744.28;5033465;28;20044;-68
2021/07/26 06:37:16;;;;;;;7.70;2.70;;;;;;;19.81;70.85;100746.94;5010452;28;20056;-68
2021/07/26 06:39:42;;;;;;;3.88;2.65;;;;;;;19.79;71.32;100749.78;5021255;28;20032;-68
2021/07/26 06:42:07;;;;;;;3.22;2.45;;;;;;;19.82;71.30;100751.97;5011504;28;20022;-68
2021/07/26 06:44:33;;;;;;;8.02;2.92;;;;;;;19.74;71.41;100752.28;5033975;28;20542;-69
2021/07/26 06:46:58;;;;;;;7.75;3.67;;;;;;;19.58;71.45;100758.06;5011649;28;20407;-68
2021/07/26 06:49:24;;;;;;;7.05;3.25;;;;;;;19.50;70.13;100761.78;5030938;28;20032;-69
2021/07/26 06:51:50;;;;;;;4.20;2.83;;;;;;;19.52;70.67;100759.72;5025543;28;21722;-68
2021/07/26 06:54:15;;;;;;;6.53;2.63;;;;;;;19.56;68.93;100760.09;5013603;28;20032;-68
2021/07/26 06:56:41;;;;;;;5.60;2.33;;;;;;;19.65;69.66;100764.84;5013179;28;20549;-68
2021/07/26 06:59:06;;;;;;;6.07;2.40;;;;;;;19.79;69.35;100762.94;5000136;28;20203;-69
2021/07/26 07:01:32;;;;;;;6.25;2.65;;;;;;;19.77;67.49;100772.06;5007964;28;20036;-69
2021/07/26 07:03:57;;;;;;;4.10;2.50;;;;;;;19.82;68.00;100765.13;5005034;28;20056;-68
2021/07/26 07:06:23;;;;;;;7.07;2.20;;;;;;;19.78;68.95;100763.97;5021859;28;20415;-69
2021/07/26 07:08:49;;;;;;;8.05;2.80;;;;;;;19.91;67.46;100763.03;5003263;28;20044;-68
2021/07/26 07:11:17;;;;;;;6.68;2.70;;;;;;;19.90;68.51;100760.63;5027242;28;20037;-68
2021/07/26 07:13:48;;;;;;;6.90;3.13;;;;;;;20.21;67.42;100763.09;4992358;28;20078;-69
2021/07/26 07:16:18;;;;;;;6.65;2.65;;;;;;;20.92;64.90;100765.22;5010769;28;20411;-68
2021/07/26 07:18:45;;;;;;;5.07;3.10;;;;;;;21.17;64.51;100757.13;5023403;28;20646;-68
2021/07/26 07:21:29;;;;;;;5.40;2.22;;;;;;;21.28;62.31;100771.38;5025078;28;20041;-69
2021/07/26 07:23:57;;;;;;;6.97;2.55;;;;;;;21.41;61.45;100757.97;5027603;28;20029;-68
2021/07/26 07:26:25;;;;;;;3.97;2.40;;;;;;;21.60;61.99;100753.41;5012909;28;20502;-70
2021/07/26 07:28:51;;;;;;;5.75;2.53;;;;;;;21.68;62.00;100760.16;5003385;28;20041;-69
2021/07/26 07:31:26;;;;;;;3.88;2.38;;;;;;;22.08;60.24;100762.09;5038623;28;20029;-68
2021/07/26 07:33:56;;;;;;;8.15;2.40;;;;;;;22.61;58.62;100754.94;5019007;28;20047;-69
2021/07/26 07:36:22;;;;;;;3.15;2.20;;;;;;;23.23;56.41;100746.19;5027902;28;20582;-69
2021/07/26 07:38:47;;;;;;;4.22;2.25;;;;;;;23.73;55.92;100750.59;5000119;28;20078;-70
2021/07/26 07:41:13;;;;;;;3.83;2.42;;;;;;;24.20;53.50;100739.53;5011739;28;20069;-69
2021/07/26 07:43:38;;;;;;;3.47;2.13;;;;;;;24.75;52.02;100742.22;5019606;28;20033;-70
2021/07/26 07:46:04;;;;;;;4.68;2.05;;;;;;;24.59;52.33;100744.72;5014179;28;20247;-70
2021/07/26 07:48:31;;;;;;;5.35;2.40;;;;;;;24.49;52.75;100742.75;5014664;28;20430;-69
2021/07/26 07:50:57;;;;;;;6.18;2.20;;;;;;;24.39;52.77;100741.84;5035588;28;20037;-70
2021/07/26 07:53:23;;;;;;;5.75;2.20;;;;;;;24.59;51.33;100750.03;5017920;28;20035;-68
2021/07/26 07:55:49;;;;;;;8.10;2.63;;;;;;;24.78;51.29;100749.69;5022196;28;20100;-69
2021/07/26 07:58:15;;;;;;;7.85;2.42;;;;;;;24.91;50.13;100740.50;5015158;28;20124;-69
2021/07/26 08:00:40;;;;;;;4.53;2.30;;;;;;;25.45;50.32;100741.19;5036501;28;20024;-69
2021/07/26 08:03:06;;;;;;;2.90;1.98;;;;;;;25.95;48.83;100740.91;5027994;28;20450;-69
2021/07/26 08:05:31;;;;;;;4.25;1.80;;;;;;;25.84;48.17;100748.81;5011491;28;20230;-70
2021/07/26 08:07:58;;;;;;;8.18;1.70;;;;;;;26.27;48.40;100735.41;5037528;28;20071;-69
2021/07/26 08:10:23;;;;;;;4.80;2.40;;;;;;;25.73;48.92;100746.34;5018533;28;20480;-70
2021/07/26 08:12:49;;;;;;;1.85;1.65;;;;;;;25.38;49.45;100751.22;5010007;28;20064;-71
2021/07/26 08:15:15;;;;;;;2.72;1.90;;;;;;;24.98;49.97;100749.84;5009608;28;20048;-69
2021/07/26 08:17:43;;;;;;;7.03;2.47;;;;;;;24.70;50.59;100750.94;5025183;28;20029;-70
2021/07/26 08:20:11;;;;;;;5.07;2.00;;;;;;;24.66;50.55;100750.63;5027217;28;20447;-69
2021/07/26 08:22:37;;;;;;;3.10;2.05;;;;;;;25.14;50.04;100744.66;5009942;28;20125;-69
2021/07/26 08:25:05;;;;;;;6.95;2.30;;;;;;;25.66;50.13;100745.81;5027078;28;20037;-70
2021/07/26 08:27:31;;;;;;;4.40;2.05;;;;;;;25.64;49.88;100748.72;5007651;28;20052;-70
2021/07/26 08:29:56;;;;;;;3.17;1.92;;;;;;;25.24;50.11;100750.06;5008199;28;20387;-69
2021/07/26 08:32:22;;;;;;;5.47;2.25;;;;;;;25.46;50.02;100749.94;5010087;28;20017;-70
2021/07/26 08:34:47;;;;;;;2.15;1.92;;;;;;;25.26;49.08;100753.28;5027179;28;20456;-70
2021/07/26 08:37:13;;;;;;;6.40;2.20;;;;;;;24.83;50.35;100753.19;5009268;28;20491;-69
2021/07/26 08:39:39;;;;;;;4.93;2.10;;;;;;;24.91;49.95;100759.06;5028474;28;20107;-69
2021/07/26 08:42:05;;;;;;;3.25;2.10;;;;;;;24.54;51.46;100751.84;5035157;28;20033;-69
2021/07/26 08:44:34;;;;;;;2.47;1.77;;;;;;;24.49;49.98;100753.38;5018406;28;20030;-69
2021/07/26 08:47:03;;;;;;;3.30;2.10;;;;;;;25.21;48.41;100750.56;5001558;28;20033;-69
2021/07/26 08:49:32;;;;;;;2.65;1.88;;;;;;;25.90;46.72;100754.94;5032886;28;20039;-69
2021/07/26 08:51:59;;;;;;;1.98;1.63;;;;;;;26.22;45.84;100749.50;5011742;28;20159;-69
2021/07/26 08:54:28;;;;;;;4.18;2.05;;;;;;;26.73;44.55;100755.97;5013200;28;20028;-69
2021/07/26 08:56:54;;;;;;;2.83;1.55;;;;;;;26.95;42.79;100759.16;5014281;28;20032;-69
2021/07/26 08:59:19;;;;;;;4.30;1.90;;;;;;;25.71;45.37;100759.91;5011803;28;20029;-71
2021/07/26 09:01:49;;;;;;;2.08;1.67;;;;;;;25.55;47.50;100768.84;5012852;28;20033;-68
2021/07/26 09:04:16;;;;;;;4.78;2.10;;;;;;;25.32;48.17;100767.38;4995909;28;20067;-70
2021/07/26 09:06:44;;;;;;;2.72;1.73;;;;;;;25.77;46.12;100768.69;5015780;28;20051;-70
2021/07/26 09:09:10;;;;;;;3.63;1.67;;;;;;;25.73;46.79;100762.28;5030290;28;20103;-72
2021/07/26 09:11:46;;;;;;;1.70;1.60;;;;;;;25.55;48.11;100769.63;5031897;28;20034;-72
2021/07/26 09:14:36;;;;;;;4.03;1.60;;;;;;;25.14;47.19;100765.88;5012027;28;20026;-70
2021/07/26 09:17:03;;;;;;;4.78;1.70;;;;;;;24.82;46.91;100770.13;5018876;28;20049;-71
2021/07/26 09:19:29;;;;;;;1.77;1.55;;;;;;;24.96;47.96;100785.63;4999803;28;20033;-72
2021/07/26 09:21:56;;;;;;;2.60;1.85;;;;;;;24.71;48.82;100776.38;5011271;28;20037;-71
2021/07/26 09:24:25;;;;;;;4.65;1.50;;;;;;;24.59;49.84;100778.41;5014874;28;20050;-70
2021/07/26 09:26:51;;;;;;;2.58;1.40;;;;;;;24.97;47.30;100779.28;5013839;28;20124;-69
2021/07/26 09:29:30;;;;;;;2.35;1.77;;;;;;;25.62;45.36;100772.88;5014811;28;20030;-72
2021/07/26 09:31:59;;;;;;;2.65;1.30;;;;;;;26.13;44.99;100780.28;5013993;28;20099;-70
2021/07/26 09:34:25;;;;;;;6.88;1.50;;;;;;;26.61;43.77;100777.50;5025225;28;20029;-70
2021/07/26 09:36:51;;;;;;;4.20;1.60;;;;;;;26.59;43.85;100775.09;5025886;28;20090;-70
2021/07/26 09:39:27;;;;;;;1.48;1.35;;;;;;;26.16;44.88;100778.97;5024984;28;20554;-71
2021/07/26 09:41:54;;;;;;;1.83;1.42;;;;;;;25.59;45.52;100778.69;5025167;28;20061;-68
2021/07/26 09:44:27;;;;;;;3.53;1.38;;;;;;;25.70;45.80;100790.16;5014425;28;20034;-70
2021/07/26 09:46:54;;;;;;;3.25;1.83;;;;;;;25.15;46.45;100786.06;5013147;28;20028;-69
2021/07/26 09:49:21;;;;;;;3.50;1.38;;;;;;;25.08;47.70;100788.13;5010154;28;20044;-69
2021/07/26 09:52:03;;;;;;;2.70;1.67;;;;;;;25.11;47.84;100777.81;4995359;28;20554;-70
2021/07/26 09:54:43;;;;;;;3.90;2.42;;;;;;;25.03;47.61;100786.22;5025044;28;20686;-69
2021/07/26 09:57:21;;;;;;;2.13;1.80;;;;;;;25.02;48.23;100781.97;5016337;28;20115;-70
2021/07/26 09:59:47;;;;;;;2.17;1.35;;;;;;;24.77;48.24;100782.53;5026060;28;20041;-69
2021/07/26 10:02:15;;;;;;;2.03;1.55;;;;;;;24.63;48.06;100788.25;5026336;28;20032;-69
2021/07/26 10:04:46;;;;;;;3.47;1.80;;;;;;;24.90;47.73;100795.38;5006832;28;20029;-70
2021/07/26 10:07:13;;;;;;;4.88;1.52;;;;;;;25.02;47.85;100788.06;5007071;28;20034;-70
2021/07/26 10:09:43;;;;;;;3.72;1.58;;;;;;;25.61;47.53;100783.72;5024245;28;20025;-69
2021/07/26 10:12:19;;;;;;;3.38;1.67;;;;;;;25.97;45.40;100783.94;5000976;23;20050;-69
2021/07/26 10:14:47;;;;;;;4.78;1.70;;;;;;;26.16;44.71;100786.94;5004685;28;20083;-70
2021/07/26 10:17:13;;;;;;;3.15;1.27;;;;;;;26.44;45.45;100784.91;5028076;28;20072;-69
2021/07/26 10:19:39;;;;;;;3.80;1.80;;;;;;;26.43;43.41;100784.09;5014689;28;20060;-68
2021/07/26 10:22:08;;;;;;;5.25;1.70;;;;;;;26.55;45.47;100775.88;5008354;28;20091;-69
2021/07/26 10:24:39;;;;;;;3.45;1.40;;;;;;;26.93;42.58;100779.13;5010832;28;20037;-69
2021/07/26 10:27:18;;;;;;;2.03;1.30;;;;;;;27.04;42.15;100779.94;5015323;28;20096;-69
2021/07/26 10:29:54;;;;;;;1.25;1.10;;;;;;;27.15;41.38;100774.34;4990989;28;20514;-70
2021/07/26 10:32:28;;;;;;;2.30;1.40;;;;;;;27.10;43.25;100773.53;5011517;28;20051;-69
2021/07/26 10:34:54;;;;;;;1.73;1.13;;;;;;;27.44;41.87;100770.34;5030212;28;20030;-70
2021/07/26 10:37:39;;;;;;;1.88;1.20;;;;;;;27.19;42.63;100778.06;5019840;28;20541;-68
2021/07/26 10:40:24;;;;;;;1.85;1.30;;;;;;;27.23;40.77;100780.97;4997522;28;20029;-69
2021/07/26 10:42:51;;;;;;;2.28;1.30;;;;;;;27.20;41.16;100784.19;5017240;28;20025;-69
2021/07/26 10:45:43;;;;;;;2.22;1.40;;;;;;;27.28;41.56;100780.22;5029491;28;20028;-69
2021/07/26 10:48:21;;;;;;;4.50;1.30;;;;;;;27.24;43.41;100782.59;4994979;28;20517;-69
2021/07/26 10:50:48;;;;;;;2.17;1.30;;;;;;;27.07;43.13;100784.72;5014120;28;20048;-69
2021/07/26 10:53:32;;;;;;;2.47;1.08;;;;;;;27.15;42.71;100784.97;5027380;28;20244;-68
2021/07/26 10:56:08;;;;;;;2.38;1.30;;;;;;;26.92;41.51;100785.53;5014759;28;20045;-68
2021/07/26 10:58:40;;;;;;;2.60;1.30;;;;;;;26.80;41.85;100788.44;5024706;28;20461;-69
2021/07/26 11:01:20;;;;;;;2.67;1.42;;;;;;;26.73;42.08;100780.72;5005275;28;20495;-69
2021/07/26 11:03:47;;;;;;;5.25;1.65;;;;;;;26.84;41.50;100783.38;5016790;28;20033;-69
2021/07/26 11:06:37;;;;;;;5.45;2.30;;;;;;;26.49;44.14;100787.56;5027721;28;20151;-69
2021/07/26 11:09:18;;;;;;;2.10;1.27;;;;;;;26.45;44.10;100784.63;5020735;28;20032;-68
2021/07/26 11:11:48;;;;;;;2.35;1.45;;;;;;;26.60;43.86;100770.63;5019412;28;20496;-69
2021/07/26 11:14:14;;;;;;;3.30;1.50;;;;;;;26.75;43.26;100780.47;5034760;28;20034;-68
2021/07/26 11:16:49;;;;;;;2.40;1.27;;;;;;;26.79;43.02;100773.56;5034687;28;20034;-69
2021/07/26 11:19:33;;;;;;;3.75;1.45;;;;;;;26.61;43.35;100764.22;5006309;28;20529;-69
2021/07/26 11:21:59;;;;;;;1.73;1.40;;;;;;;26.65;43.47;100775.91;5032909;28;20199;-68
2021/07/26 11:24:44;;;;;;;1.73;1.10;;;;;;;26.72;42.11;100773.00;5028690;28;20057;-69
2021/07/26 11:27:31;;;;;;;5.32;1.30;;;;;;;26.60;43.42;100766.09;5012710;28;20095;-68
2021/07/26 11:29:56;;;;;;;4.22;1.15;;;;;;;26.61;43.45;100772.19;5002245;28;20056;-70
2021/07/26 11:32:27;;;;;;;1.90;1.27;;;;;;;26.57;44.31;100765.78;5024048;28;20454;-68